createdAt,value
2019-04-29T00:00:11.725Z,3.43
2019-04-29T00:02:44.258Z,3.50
2019-04-29T00:05:15.159Z,3.20
2019-04-29T00:07:45.951Z,3.40
2019-04-29T00:10:20.808Z,3.33
2019-04-29T00:12:51.781Z,3.50
2019-04-29T00:15:44.348Z,3.40
2019-04-29T00:18:23.928Z,3.37
2019-04-29T00:20:54.867Z,3.50
2019-04-29T00:23:25.674Z,3.47
2019-04-29T00:25:56.624Z,3.50
2019-04-29T00:28:27.481Z,3.30
2019-04-29T00:30:58.441Z,3.67
2019-04-29T00:33:29.491Z,3.50
2019-04-29T00:36:00.426Z,3.40
2019-04-29T00:38:49.132Z,3.17
2019-04-29T00:41:37.682Z,3.23
2019-04-29T00:44:10.988Z,3.17
2019-04-29T00:46:42.106Z,3.20
2019-04-29T00:49:12.826Z,3.30
2019-04-29T00:51:43.546Z,3.17
2019-04-29T00:54:22.166Z,3.40
2019-04-29T00:56:52.915Z,3.73
2019-04-29T00:59:23.790Z,3.37
2019-04-29T01:01:54.591Z,3.60
2019-04-29T01:04:25.554Z,3.67
2019-04-29T01:06:56.264Z,3.73
2019-04-29T01:09:28.572Z,3.73
2019-04-29T01:11:59.223Z,3.93
2019-04-29T01:14:30.042Z,3.87
2019-04-29T01:17:00.872Z,2.93
2019-04-29T01:19:31.708Z,3.93
2019-04-29T01:22:02.266Z,3.60
2019-04-29T01:24:33.790Z,3.30
2019-04-29T01:27:27.145Z,3.57
2019-04-29T01:29:59.097Z,4.10
2019-04-29T01:32:29.794Z,3.90
2019-04-29T01:35:03.192Z,3.63
2019-04-29T01:37:43.734Z,3.90
2019-04-29T01:40:45.096Z,3.83
2019-04-29T01:43:15.666Z,3.47
2019-04-29T01:45:46.582Z,3.53
2019-04-29T01:48:17.383Z,3.47
2019-04-29T01:50:49.108Z,3.57
2019-04-29T01:53:20.747Z,3.80
2019-04-29T01:55:51.386Z,3.93
2019-04-29T01:58:22.430Z,3.90
2019-04-29T02:00:54.426Z,3.57
2019-04-29T02:03:25.136Z,3.60
2019-04-29T02:05:55.908Z,3.27
2019-04-29T02:08:26.498Z,3.30
2019-04-29T02:10:57.026Z,3.60
2019-04-29T02:13:27.522Z,3.47
2019-04-29T02:15:58.063Z,3.53
2019-04-29T02:18:28.652Z,3.57
2019-04-29T02:20:59.419Z,3.40
2019-04-29T02:23:38.666Z,3.67
2019-04-29T02:26:09.463Z,3.33
2019-04-29T02:28:40.151Z,3.60
2019-04-29T02:31:39.109Z,3.80
2019-04-29T02:34:10.328Z,3.63
2019-04-29T02:36:40.748Z,3.50
2019-04-29T02:39:29.287Z,3.40
2019-04-29T02:42:17.583Z,3.03
2019-04-29T02:44:49.135Z,3.63
2019-04-29T02:47:20.234Z,3.97
2019-04-29T02:49:51.056Z,3.47
2019-04-29T02:52:21.890Z,3.43
2019-04-29T02:54:57.003Z,3.40
2019-04-29T02:57:44.808Z,3.40
2019-04-29T03:00:37.594Z,3.33
2019-04-29T03:03:14.977Z,3.50
2019-04-29T03:05:49.199Z,3.50
2019-04-29T03:08:20.377Z,3.67
2019-04-29T03:10:51.207Z,3.40
2019-04-29T03:13:22.053Z,3.17
2019-04-29T03:15:53.083Z,3.90
2019-04-29T03:18:26.445Z,3.53
2019-04-29T03:21:04.856Z,3.40
2019-04-29T03:23:35.951Z,2.90
2019-04-29T03:26:06.464Z,4.03
2019-04-29T03:28:37.206Z,3.90
2019-04-29T03:31:08.039Z,3.27
2019-04-29T03:33:38.763Z,3.67
2019-04-29T03:36:10.044Z,4.07
2019-04-29T03:38:41.784Z,3.60
2019-04-29T03:41:12.385Z,4.10
2019-04-29T03:43:42.836Z,3.80
2019-04-29T03:46:13.670Z,3.43
2019-04-29T03:48:44.667Z,3.50
2019-04-29T03:51:15.363Z,3.10
2019-04-29T03:53:46.207Z,3.80
2019-04-29T03:56:17.059Z,3.17
2019-04-29T03:58:47.695Z,4.23
2019-04-29T04:01:27.094Z,4.00
2019-04-29T04:04:02.676Z,3.47
2019-04-29T04:06:44.571Z,4.27
2019-04-29T04:09:20.210Z,4.13
2019-04-29T04:11:50.868Z,3.63
2019-04-29T04:14:21.772Z,4.20
2019-04-29T04:17:10.348Z,4.00
2019-04-29T04:19:41.367Z,4.40
2019-04-29T04:22:11.866Z,4.73
2019-04-29T04:24:42.831Z,3.90
2019-04-29T04:27:13.578Z,4.43
2019-04-29T04:29:44.615Z,4.20
2019-04-29T04:32:15.382Z,4.50
2019-04-29T04:34:46.196Z,4.40
2019-04-29T04:37:17.202Z,4.23
2019-04-29T04:39:47.806Z,3.73
2019-04-29T04:42:18.835Z,4.50
2019-04-29T04:44:52.529Z,4.17
2019-04-29T04:47:23.423Z,4.30
2019-04-29T04:49:55.087Z,4.03
2019-04-29T04:52:25.983Z,3.90
2019-04-29T04:54:56.674Z,3.77
2019-04-29T04:57:27.546Z,4.20
2019-04-29T04:59:58.403Z,4.70
2019-04-29T05:02:29.199Z,4.13
2019-04-29T05:05:00.075Z,4.37
2019-04-29T05:07:30.618Z,3.70
2019-04-29T05:10:01.219Z,4.33
2019-04-29T05:12:32.251Z,4.67
2019-04-29T05:15:02.936Z,4.50
2019-04-29T05:17:34.234Z,4.50
2019-04-29T05:20:04.997Z,4.43
2019-04-29T05:22:35.647Z,4.67
2019-04-29T05:25:06.676Z,4.13
2019-04-29T05:27:37.583Z,4.00
2019-04-29T05:30:08.543Z,4.70
2019-04-29T05:32:39.739Z,3.97
2019-04-29T05:35:13.318Z,4.40
2019-04-29T05:37:56.924Z,3.53
2019-04-29T05:40:38.839Z,3.87
2019-04-29T05:43:11.338Z,4.00
2019-04-29T05:45:55.087Z,3.53
2019-04-29T05:48:27.724Z,3.60
2019-04-29T05:51:27.306Z,3.83
2019-04-29T05:53:56.779Z,3.50
2019-04-29T05:56:27.688Z,3.70
2019-04-29T05:58:58.327Z,4.17
2019-04-29T06:01:30.667Z,3.60
2019-04-29T06:04:01.792Z,3.93
2019-04-29T06:06:32.990Z,3.23
2019-04-29T06:09:05.201Z,3.17
2019-04-29T06:11:36.367Z,3.10
2019-04-29T06:14:06.963Z,3.50
2019-04-29T06:16:38.818Z,3.67
2019-04-29T06:19:09.559Z,3.73
2019-04-29T06:21:40.654Z,3.30
2019-04-29T06:24:11.564Z,3.90
2019-04-29T06:26:43.826Z,3.67
2019-04-29T06:29:15.505Z,3.57
2019-04-29T06:31:46.539Z,3.40
2019-04-29T06:34:17.018Z,3.93
2019-04-29T06:36:47.802Z,3.53
2019-04-29T06:39:18.526Z,4.00
2019-04-29T06:41:49.379Z,4.07
2019-04-29T06:44:19.953Z,3.93
2019-04-29T06:46:54.497Z,3.33
2019-04-29T06:49:24.953Z,3.63
2019-04-29T06:51:56.292Z,4.30
2019-04-29T06:54:27.035Z,3.43
2019-04-29T06:56:58.630Z,3.40
2019-04-29T06:59:29.902Z,4.50
2019-04-29T07:02:00.671Z,3.70
2019-04-29T07:04:38.536Z,4.10
2019-04-29T07:07:04.920Z,3.20
2019-04-29T07:09:35.695Z,3.53
2019-04-29T07:12:08.168Z,3.20
2019-04-29T07:14:39.015Z,3.70
2019-04-29T07:17:10.815Z,3.77
2019-04-29T07:19:42.957Z,3.27
2019-04-29T07:22:13.951Z,3.03
2019-04-29T07:24:46.154Z,3.47
2019-04-29T07:27:17.240Z,3.30
2019-04-29T07:29:49.096Z,3.50
2019-04-29T07:32:21.674Z,3.17
2019-04-29T07:34:53.924Z,3.60
2019-04-29T07:37:24.679Z,3.20
2019-04-29T07:39:56.643Z,3.20
2019-04-29T07:42:32.299Z,3.27
2019-04-29T07:45:43.316Z,3.00
2019-04-29T07:48:06.400Z,2.83
2019-04-29T07:50:35.736Z,3.00
2019-04-29T07:53:06.427Z,3.10
2019-04-29T07:55:37.522Z,2.83
2019-04-29T07:58:08.234Z,2.87
2019-04-29T08:00:38.907Z,2.70
2019-04-29T08:03:09.918Z,2.93
2019-04-29T08:05:41.662Z,2.97
2019-04-29T08:08:16.634Z,3.07
2019-04-29T08:10:56.119Z,2.67
2019-04-29T08:13:19.266Z,2.80
2019-04-29T08:15:51.419Z,2.60
2019-04-29T08:18:22.112Z,2.43
2019-04-29T08:20:53.362Z,2.60
2019-04-29T08:23:24.176Z,2.53
2019-04-29T08:25:57.680Z,2.63
2019-04-29T08:28:27.754Z,2.20
2019-04-29T08:30:58.280Z,2.90
2019-04-29T08:33:28.910Z,2.53
2019-04-29T08:35:59.844Z,2.60
2019-04-29T08:38:30.751Z,2.20
2019-04-29T08:41:01.624Z,2.50
2019-04-29T08:44:15.630Z,2.90
2019-04-29T08:46:57.670Z,2.60
2019-04-29T08:49:28.774Z,2.50
2019-04-29T08:52:00.559Z,3.13
2019-04-29T08:54:31.450Z,2.80
2019-04-29T08:57:04.200Z,2.93
2019-04-29T08:59:34.691Z,3.03
2019-04-29T09:02:10.228Z,3.00
2019-04-29T09:04:37.917Z,3.07
2019-04-29T09:07:12.672Z,3.40
2019-04-29T09:09:41.177Z,3.10
2019-04-29T09:12:11.172Z,2.80
2019-04-29T09:14:42.143Z,3.53
2019-04-29T09:17:20.173Z,3.13
2019-04-29T09:19:45.442Z,3.10
2019-04-29T09:22:18.299Z,3.27
2019-04-29T09:25:06.525Z,2.90
2019-04-29T09:27:40.690Z,2.90
2019-04-29T09:30:12.263Z,3.17
2019-04-29T09:32:43.279Z,3.30
2019-04-29T09:35:14.519Z,3.00
2019-04-29T09:37:45.268Z,3.10
2019-04-29T09:40:18.870Z,3.10
2019-04-29T09:43:15.839Z,2.80
2019-04-29T09:46:01.422Z,3.30
2019-04-29T09:48:32.615Z,3.33
2019-04-29T09:51:16.791Z,2.80
2019-04-29T09:53:37.131Z,3.20
2019-04-29T09:56:08.290Z,3.50
2019-04-29T09:58:40.318Z,3.50
2019-04-29T10:01:36.714Z,3.07
2019-04-29T10:04:26.451Z,3.23
2019-04-29T10:06:58.446Z,2.93
2019-04-29T10:09:29.400Z,3.70
2019-04-29T10:12:01.130Z,3.27
2019-04-29T10:14:32.407Z,3.20
2019-04-29T10:17:27.927Z,3.70
2019-04-29T10:20:12.374Z,3.27
2019-04-29T10:22:43.250Z,3.30
2019-04-29T10:25:13.976Z,3.43
2019-04-29T10:27:44.647Z,3.73
2019-04-29T10:30:17.906Z,3.60
2019-04-29T10:32:48.539Z,3.77
2019-04-29T10:35:19.134Z,3.20
2019-04-29T10:37:50.017Z,3.30
2019-04-29T10:40:40.755Z,3.50
2019-04-29T10:43:37.339Z,3.40
2019-04-29T10:46:36.179Z,3.60
2019-04-29T10:49:12.994Z,3.27
2019-04-29T10:51:43.799Z,3.60
2019-04-29T10:54:14.802Z,4.00
2019-04-29T10:56:45.577Z,3.80
2019-04-29T10:59:16.390Z,3.97
2019-04-29T11:02:44.692Z,3.47
2019-04-29T11:05:33.868Z,3.53
2019-04-29T11:08:38.210Z,3.63
2019-04-29T11:11:22.678Z,3.90
2019-04-29T11:13:48.385Z,3.57
2019-04-29T11:16:17.714Z,3.70
2019-04-29T11:18:50.575Z,3.73
2019-04-29T11:21:25.085Z,3.80
2019-04-29T11:24:04.821Z,4.20
2019-04-29T11:26:47.861Z,3.93
2019-04-29T11:29:22.135Z,3.60
2019-04-29T11:31:54.141Z,4.10
2019-04-29T11:34:42.983Z,4.40
2019-04-29T11:37:17.851Z,4.07
2019-04-29T11:39:50.227Z,3.90
2019-04-29T11:42:22.739Z,3.93
2019-04-29T11:44:57.277Z,4.30
2019-04-29T11:47:26.700Z,3.90
2019-04-29T11:50:15.783Z,4.00
2019-04-29T11:52:46.902Z,4.03
2019-04-29T11:55:19.886Z,4.30
2019-04-29T11:57:55.991Z,3.80
2019-04-29T12:00:44.667Z,3.93
2019-04-29T12:03:18.992Z,3.87
2019-04-29T12:05:54.649Z,4.07
2019-04-29T12:08:25.577Z,3.47
2019-04-29T12:11:06.804Z,4.30
2019-04-29T12:14:06.366Z,4.07
2019-04-29T12:16:44.014Z,4.10
2019-04-29T12:19:21.396Z,4.23
2019-04-29T12:21:50.518Z,4.20
2019-04-29T12:24:21.506Z,3.70
2019-04-29T12:26:52.691Z,3.60
2019-04-29T12:29:24.009Z,3.80
2019-04-29T12:32:15.511Z,4.00
2019-04-29T12:34:54.722Z,4.10
2019-04-29T12:37:43.315Z,4.17
2019-04-29T12:40:45.652Z,3.87
2019-04-29T12:43:43.276Z,4.33
2019-04-29T12:46:23.361Z,4.47
2019-04-29T12:48:55.298Z,4.00
2019-04-29T12:51:26.344Z,4.03
2019-04-29T12:53:57.268Z,3.90
2019-04-29T12:56:34.057Z,4.00
2019-04-29T12:59:05.507Z,4.20
2019-04-29T13:01:59.529Z,4.50
2019-04-29T13:05:02.222Z,4.37
2019-04-29T13:07:45.981Z,4.63
2019-04-29T13:10:42.328Z,4.90
2019-04-29T13:13:15.607Z,4.53
2019-04-29T13:16:07.066Z,4.47
2019-04-29T13:18:48.741Z,4.37
2019-04-29T13:21:18.715Z,4.83
2019-04-29T13:23:59.531Z,5.27
2019-04-29T13:26:28.179Z,5.40
2019-04-29T13:29:01.473Z,5.13
2019-04-29T13:31:38.584Z,5.47
2019-04-29T13:34:22.802Z,5.07
2019-04-29T13:36:41.251Z,5.37
2019-04-29T13:39:13.885Z,5.67
2019-04-29T13:41:57.230Z,5.07
2019-04-29T13:44:19.694Z,6.30
2019-04-29T13:47:12.426Z,6.67
2019-04-29T13:49:49.792Z,6.00
2019-04-29T13:52:20.990Z,6.20
2019-04-29T13:54:52.068Z,6.10
2019-04-29T13:57:23.061Z,6.33
2019-04-29T14:00:24.434Z,6.50
2019-04-29T14:03:00.370Z,6.13
2019-04-29T14:05:36.322Z,5.93
2019-04-29T14:08:07.725Z,6.23
2019-04-29T14:10:38.639Z,6.07
2019-04-29T14:13:16.113Z,6.23
2019-04-29T14:15:42.940Z,6.17
2019-04-29T14:18:15.446Z,6.00
2019-04-29T14:20:47.389Z,5.20
2019-04-29T14:23:19.084Z,6.50
2019-04-29T14:25:52.651Z,5.57
2019-04-29T14:28:23.718Z,5.83
2019-04-29T14:30:55.924Z,5.60
2019-04-29T14:33:32.528Z,5.80
2019-04-29T14:36:07.771Z,6.30
2019-04-29T14:38:40.587Z,6.20
2019-04-29T14:41:14.367Z,6.80
2019-04-29T14:44:06.263Z,6.03
2019-04-29T14:47:04.777Z,5.87
2019-04-29T14:49:41.040Z,6.07
2019-04-29T14:52:15.023Z,6.03
2019-04-29T14:54:47.272Z,6.07
2019-04-29T14:57:20.960Z,6.20
2019-04-29T14:59:51.881Z,6.40
2019-04-29T15:02:25.047Z,6.40
2019-04-29T15:04:56.141Z,5.60
2019-04-29T15:07:29.425Z,6.40
2019-04-29T15:10:00.436Z,5.60
2019-04-29T15:12:51.886Z,6.03
2019-04-29T15:15:44.639Z,6.60
2019-04-29T15:18:52.743Z,6.17
2019-04-29T15:21:46.588Z,6.73
2019-04-29T15:24:17.712Z,6.53
2019-04-29T15:26:48.623Z,6.30
2019-04-29T15:29:19.547Z,6.50
2019-04-29T15:31:50.578Z,6.93
2019-04-29T15:34:21.295Z,6.83
2019-04-29T15:36:55.258Z,6.97
2019-04-29T15:39:26.503Z,7.47
2019-04-29T15:42:01.576Z,7.10
2019-04-29T15:44:30.378Z,7.47
2019-04-29T15:47:01.569Z,8.30
2019-04-29T15:49:32.372Z,8.10
2019-04-29T15:52:03.159Z,7.37
2019-04-29T15:54:34.363Z,7.60
2019-04-29T15:57:09.146Z,8.27
2019-04-29T15:59:48.380Z,7.60
2019-04-29T16:02:10.403Z,7.47
2019-04-29T16:04:47.297Z,6.77
2019-04-29T16:07:46.804Z,7.13
2019-04-29T16:10:38.932Z,6.93
2019-04-29T16:13:11.340Z,7.10
2019-04-29T16:15:42.147Z,7.10
2019-04-29T16:18:14.702Z,6.70
2019-04-29T16:20:45.803Z,6.23
2019-04-29T16:23:16.871Z,6.50
2019-04-29T16:25:52.273Z,6.20
2019-04-29T16:28:24.239Z,6.03
2019-04-29T16:30:53.503Z,5.37
2019-04-29T16:33:25.067Z,5.77
2019-04-29T16:35:57.548Z,5.53
2019-04-29T16:38:29.155Z,5.33
2019-04-29T16:41:12.420Z,5.53
2019-04-29T16:43:44.493Z,5.20
2019-04-29T16:46:23.525Z,5.43
2019-04-29T16:48:50.695Z,5.33
2019-04-29T16:51:22.079Z,5.73
2019-04-29T16:53:53.271Z,5.50
2019-04-29T16:56:24.477Z,5.37
2019-04-29T16:58:55.768Z,5.60
2019-04-29T17:01:26.835Z,4.73
2019-04-29T17:04:04.863Z,4.87
2019-04-29T17:06:36.095Z,4.77
2019-04-29T17:09:12.787Z,4.13
2019-04-29T17:11:50.453Z,3.90
2019-04-29T17:14:18.838Z,4.50
2019-04-29T17:16:49.707Z,4.23
2019-04-29T17:19:23.226Z,4.47
2019-04-29T17:22:23.809Z,3.90
2019-04-29T17:24:27.613Z,3.80
2019-04-29T17:27:20.758Z,3.80
2019-04-29T17:30:09.742Z,3.77
2019-04-29T17:33:01.061Z,3.60
2019-04-29T17:35:34.650Z,4.00
2019-04-29T17:38:05.623Z,3.50
2019-04-29T17:40:38.613Z,4.30
2019-04-29T17:43:28.433Z,4.30
2019-04-29T17:46:10.041Z,3.63
2019-04-29T17:48:48.574Z,4.00
2019-04-29T17:51:19.558Z,3.83
2019-04-29T17:53:54.974Z,4.10
2019-04-29T17:57:15.582Z,3.80
2019-04-29T17:59:45.857Z,3.73
2019-04-29T18:02:45.606Z,3.70
2019-04-29T18:05:28.113Z,3.50
2019-04-29T18:08:01.688Z,3.63
2019-04-29T18:10:38.597Z,4.00
2019-04-29T18:13:12.339Z,3.37
2019-04-29T18:15:58.614Z,3.63
2019-04-29T18:18:26.320Z,4.07
2019-04-29T18:21:17.222Z,4.80
2019-04-29T18:24:05.695Z,4.10
2019-04-29T18:26:49.668Z,4.60
2019-04-29T18:29:21.821Z,4.40
2019-04-29T18:31:53.352Z,4.00
2019-04-29T18:34:25.262Z,3.57
2019-04-29T18:37:00.173Z,3.60
2019-04-29T18:39:31.458Z,4.10
2019-04-29T18:42:03.126Z,3.20
2019-04-29T18:44:35.799Z,3.60
2019-04-29T18:47:06.902Z,3.37
2019-04-29T18:49:38.011Z,3.17
2019-04-29T18:52:11.344Z,3.40
2019-04-29T18:54:41.131Z,3.60
2019-04-29T18:57:27.451Z,3.57
2019-04-29T18:59:47.565Z,3.70
2019-04-29T19:02:18.348Z,3.40
2019-04-29T19:05:04.899Z,3.63
2019-04-29T19:07:37.263Z,3.73
2019-04-29T19:10:14.376Z,3.10
2019-04-29T19:12:40.774Z,3.87
2019-04-29T19:15:15.118Z,3.97
2019-04-29T19:17:58.296Z,2.93
2019-04-29T19:20:18.837Z,3.47
2019-04-29T19:22:55.750Z,3.60
2019-04-29T19:25:23.024Z,3.77
2019-04-29T19:27:53.521Z,3.50
2019-04-29T19:30:29.099Z,3.40
2019-04-29T19:33:00.360Z,3.17
2019-04-29T19:35:33.843Z,3.60
2019-04-29T19:38:02.007Z,3.50
2019-04-29T19:40:38.882Z,3.30
2019-04-29T19:43:10.338Z,3.50
2019-04-29T19:45:44.555Z,3.50
2019-04-29T19:48:16.089Z,3.30
2019-04-29T19:50:50.162Z,3.70
2019-04-29T19:53:20.657Z,3.27
2019-04-29T19:56:01.455Z,3.47
2019-04-29T19:58:31.412Z,3.20
2019-04-29T20:01:10.791Z,3.10
2019-04-29T20:03:37.768Z,3.03
2019-04-29T20:06:21.329Z,3.67
2019-04-29T20:08:54.174Z,3.43
2019-04-29T20:11:18.427Z,3.00
2019-04-29T20:14:02.035Z,3.43
2019-04-29T20:16:43.745Z,3.40
2019-04-29T20:19:22.540Z,3.43
2019-04-29T20:21:55.890Z,3.10
2019-04-29T20:24:26.517Z,3.47
2019-04-29T20:26:57.253Z,3.50
2019-04-29T20:29:33.690Z,3.20
2019-04-29T20:32:01.405Z,3.53
2019-04-29T20:34:32.170Z,3.60
2019-04-29T20:37:03.108Z,3.10
2019-04-29T20:39:37.961Z,3.30
2019-04-29T20:42:10.248Z,3.00
2019-04-29T20:44:44.741Z,3.10
2019-04-29T20:47:20.259Z,3.30
2019-04-29T20:49:46.344Z,3.20
2019-04-29T20:52:52.038Z,3.33
2019-04-29T20:55:24.394Z,3.70
2019-04-29T20:57:55.176Z,3.40
2019-04-29T21:00:28.384Z,2.90
2019-04-29T21:03:03.935Z,3.17
2019-04-29T21:05:32.271Z,2.93
2019-04-29T21:08:13.525Z,3.60
2019-04-29T21:10:37.964Z,3.10
2019-04-29T21:13:33.027Z,3.57
2019-04-29T21:16:09.559Z,3.37
2019-04-29T21:18:40.509Z,3.53
2019-04-29T21:21:11.458Z,3.30
2019-04-29T21:23:42.308Z,3.37
2019-04-29T21:26:13.279Z,3.63
2019-04-29T21:28:47.058Z,3.20
2019-04-29T21:31:19.985Z,3.50
2019-04-29T21:33:50.756Z,3.53
2019-04-29T21:36:32.846Z,3.87
2019-04-29T21:39:32.330Z,3.10
2019-04-29T21:42:35.410Z,4.03
2019-04-29T21:45:08.643Z,3.27
2019-04-29T21:47:45.132Z,3.00
2019-04-29T21:50:11.535Z,3.40
2019-04-29T21:52:42.248Z,3.17
2019-04-29T21:55:13.542Z,3.30
2019-04-29T21:57:45.379Z,3.43
2019-04-29T22:00:24.016Z,3.00
2019-04-29T22:02:51.963Z,3.60
2019-04-29T22:05:22.750Z,3.10
2019-04-29T22:07:56.337Z,3.10
2019-04-29T22:10:28.946Z,3.33
2019-04-29T22:13:02.265Z,3.40
2019-04-29T22:15:38.203Z,3.47
2019-04-29T22:18:13.652Z,3.20
2019-04-29T22:20:42.314Z,3.20
2019-04-29T22:23:13.224Z,3.17
2019-04-29T22:25:45.693Z,3.30
2019-04-29T22:28:19.675Z,3.70
2019-04-29T22:30:49.881Z,3.47
2019-04-29T22:33:21.057Z,3.17
2019-04-29T22:35:51.604Z,3.40
2019-04-29T22:38:22.293Z,3.23
2019-04-29T22:40:55.083Z,3.23
2019-04-29T22:43:44.539Z,3.40
2019-04-29T22:46:15.696Z,3.40
2019-04-29T22:48:48.712Z,3.33
2019-04-29T22:51:19.014Z,3.37
2019-04-29T22:53:51.199Z,3.50
2019-04-29T22:56:21.994Z,3.23
2019-04-29T22:58:52.562Z,3.17
2019-04-29T23:01:23.062Z,3.20
2019-04-29T23:03:55.395Z,3.00
2019-04-29T23:06:26.706Z,3.07
2019-04-29T23:08:57.592Z,3.17
2019-04-29T23:11:28.304Z,3.20
2019-04-29T23:14:01.701Z,3.20
2019-04-29T23:16:35.778Z,3.37
2019-04-29T23:19:05.314Z,2.93
2019-04-29T23:21:55.919Z,3.27
2019-04-29T23:24:46.683Z,3.17
2019-04-29T23:27:19.517Z,3.20
2019-04-29T23:29:48.587Z,3.10
2019-04-29T23:32:19.391Z,3.20
2019-04-29T23:34:50.272Z,3.00
2019-04-29T23:37:23.868Z,3.00
2019-04-29T23:39:53.513Z,2.90
2019-04-29T23:42:25.982Z,3.10
2019-04-29T23:44:57.215Z,3.00
2019-04-29T23:47:28.065Z,3.00
2019-04-29T23:49:58.836Z,3.17
2019-04-29T23:52:29.739Z,2.97
2019-04-29T23:55:00.598Z,3.13
2019-04-29T23:57:49.668Z,3.37
